Time;durP1;ratioP1;P1;durP2;ratioP2;P2;SDS_P1;SDS_P2;PMS_P1;PMS_P2;Temp;Humidity;BMP_temperature;BMP_pressure;BME280_temperature;BME280_humidity;BME280_pressure;Samples;Min_cycle;Max_cycle;Signal;HPM_P1;HPM_P2
2021/01/17 00:00:20;;;;;;;9.47;5.63;;;-4.00;53.80;;;;;;5073956;28;20131;-79
2021/01/17 00:02:48;;;;;;;11.57;5.50;;;-3.90;53.80;;;;;;5057177;28;20072;-80
2021/01/17 00:05:16;;;;;;;12.37;6.20;;;-3.90;53.50;;;;;;5075163;28;20094;-82
2021/01/17 00:07:42;;;;;;;10.40;5.40;;;-3.90;53.50;;;;;;5075411;28;20074;-78
2021/01/17 00:10:10;;;;;;;12.30;5.87;;;-3.90;53.50;;;;;;5074827;28;20082;-79
2021/01/17 00:12:38;;;;;;;11.13;5.30;;;-3.90;53.20;;;;;;5058419;28;20472;-79
2021/01/17 00:15:10;;;;;;;13.07;6.17;;;-3.90;53.40;;;;;;5076271;28;20035;-81
2021/01/17 00:17:40;;;;;;;14.33;5.93;;;-3.90;53.20;;;;;;5074767;28;20404;-80
2021/01/17 00:20:08;;;;;;;11.83;6.30;;;-3.90;53.30;;;;;;5056613;28;20139;-79
2021/01/17 00:22:35;;;;;;;14.40;6.23;;;-3.90;53.40;;;;;;5073240;28;20496;-79
2021/01/17 00:25:03;;;;;;;12.23;5.83;;;-3.90;53.30;;;;;;5072949;28;20035;-79
2021/01/17 00:27:29;;;;;;;12.27;5.83;;;-3.90;53.20;;;;;;5074348;28;20036;-80
2021/01/17 00:29:55;;;;;;;11.90;6.50;;;-3.90;53.00;;;;;;5073567;28;20500;-80
2021/01/17 00:32:21;;;;;;;12.67;5.77;;;-3.90;53.20;;;;;;5073537;28;20032;-81
2021/01/17 00:34:47;;;;;;;10.63;6.20;;;-3.90;52.90;;;;;;5073613;28;20125;-81
2021/01/17 00:37:17;;;;;;;12.00;5.67;;;-4.00;53.10;;;;;;5075159;28;20400;-82
2021/01/17 00:39:43;;;;;;;12.37;5.97;;;-4.00;52.90;;;;;;5088447;28;20047;-79
2021/01/17 00:42:14;;;;;;;12.20;6.00;;;-4.00;52.80;;;;;;5093051;28;20043;-82
2021/01/17 00:44:43;;;;;;;12.00;5.90;;;-4.00;52.90;;;;;;5097160;28;20036;-81
2021/01/17 00:47:13;;;;;;;12.13;5.57;;;-3.90;52.90;;;;;;5076886;28;20040;-78
2021/01/17 00:49:43;;;;;;;11.17;6.00;;;-3.90;52.80;;;;;;5092921;28;20032;-79
2021/01/17 00:52:22;;;;;;;12.20;5.60;;;-3.90;52.80;;;;;;5093626;28;20036;-80
2021/01/17 00:54:50;;;;;;;11.57;5.70;;;-4.00;52.70;;;;;;5074502;28;20566;-80
2021/01/17 00:57:20;;;;;;;11.33;5.13;;;-4.00;52.80;;;;;;5040386;28;20032;-81
2021/01/17 00:59:46;;;;;;;10.83;5.57;;;-4.00;52.70;;;;;;5055800;28;20063;-80
2021/01/17 01:02:12;;;;;;;11.60;5.63;;;-4.00;52.70;;;;;;5039512;28;20033;-78
2021/01/17 01:04:38;;;;;;;11.40;5.30;;;-4.00;52.70;;;;;;5056280;28;20553;-79
2021/01/17 01:07:04;;;;;;;11.73;5.60;;;-4.00;52.80;;;;;;5056279;28;20052;-80
2021/01/17 01:09:30;;;;;;;10.43;5.23;;;-4.00;52.70;;;;;;5073429;28;20028;-79
2021/01/17 01:11:56;;;;;;;9.93;5.90;;;-3.90;52.80;;;;;;5055908;28;20025;-81
2021/01/17 01:14:22;;;;;;;10.70;5.23;;;-3.90;52.50;;;;;;5055750;28;20047;-80
2021/01/17 01:16:53;;;;;;;10.53;5.23;;;-4.00;52.40;;;;;;5074089;28;20045;-81
2021/01/17 01:19:20;;;;;;;11.73;6.03;;;-3.90;52.60;;;;;;5039293;28;20049;-78
2021/01/17 01:21:46;;;;;;;10.93;6.17;;;-3.90;52.50;;;;;;5043083;28;20036;-80
2021/01/17 01:24:12;;;;;;;11.63;5.80;;;-4.00;52.40;;;;;;5055446;28;20055;-79
2021/01/17 01:26:43;;;;;;;9.47;5.20;;;-4.00;52.40;;;;;;5055925;28;20033;-79
2021/01/17 01:29:10;;;;;;;11.40;5.80;;;-3.90;52.50;;;;;;5039482;28;20071;-80
2021/01/17 01:31:37;;;;;;;11.47;6.67;;;-3.90;52.30;;;;;;5056686;28;20068;-82
2021/01/17 01:34:05;;;;;;;10.37;6.20;;;-3.90;52.30;;;;;;5039468;28;20032;-84
2021/01/17 01:36:36;;;;;;;13.67;5.67;;;-4.00;52.10;;;;;;5056307;28;20214;-82
2021/01/17 01:39:07;;;;;;;12.93;5.50;;;-4.10;52.20;;;;;;5057623;28;20040;-81
2021/01/17 01:41:38;;;;;;;15.27;6.73;;;-4.10;52.20;;;;;;5039644;28;20093;-80
2021/01/17 01:44:05;;;;;;;10.87;5.17;;;-4.10;52.20;;;;;;5058421;28;20032;-80
2021/01/17 01:46:32;;;;;;;9.63;6.13;;;-4.10;52.20;;;;;;5056211;28;20032;-82
2021/01/17 01:49:01;;;;;;;10.60;5.20;;;-4.10;52.20;;;;;;5055492;28;20111;-81
2021/01/17 01:51:27;;;;;;;12.00;5.97;;;-4.00;52.10;;;;;;5038691;28;20492;-81
2021/01/17 01:53:57;;;;;;;11.37;5.30;;;-4.00;51.80;;;;;;5076432;28;20078;-81
2021/01/17 01:56:26;;;;;;;9.23;5.43;;;-4.10;51.90;;;;;;5076186;28;20492;-80
2021/01/17 01:58:54;;;;;;;11.90;5.80;;;-4.10;51.90;;;;;;5093803;28;20047;-82
2021/01/17 02:01:21;;;;;;;10.10;5.50;;;-4.10;51.80;;;;;;5093626;28;20121;-80
2021/01/17 02:03:48;;;;;;;9.53;5.30;;;-4.10;51.80;;;;;;5091752;28;20028;-81
2021/01/17 02:06:19;;;;;;;12.20;5.57;;;-4.20;51.70;;;;;;5092205;28;20032;-80
2021/01/17 02:08:57;;;;;;;13.50;6.23;;;-4.20;51.70;;;;;;5092396;28;20434;-80
2021/01/17 02:11:45;;;;;;;12.17;6.07;;;-4.20;51.70;;;;;;5093290;28;20062;-80
2021/01/17 02:14:40;;;;;;;13.90;7.07;;;-4.20;51.70;;;;;;5093914;28;20036;-81
2021/01/17 02:17:12;;;;;;;11.97;5.63;;;-4.20;51.60;;;;;;5088969;28;20075;-82
2021/01/17 02:20:00;;;;;;;11.10;5.27;;;-4.20;51.60;;;;;;5093552;28;20036;-82
2021/01/17 02:22:32;;;;;;;9.13;5.47;;;-4.20;51.50;;;;;;5075126;28;20169;-83
2021/01/17 02:25:04;;;;;;;10.30;4.60;;;-4.10;51.50;;;;;;5092434;28;20032;-80
2021/01/17 02:27:31;;;;;;;10.63;5.93;;;-4.20;51.10;;;;;;5077528;28;20036;-80
2021/01/17 02:30:03;;;;;;;9.67;5.43;;;-4.20;51.30;;;;;;5096732;28;20064;-82
2021/01/17 02:32:32;;;;;;;12.27;5.60;;;-4.20;51.30;;;;;;5092232;28;20482;-82
2021/01/17 02:34:59;;;;;;;13.10;6.00;;;-4.30;51.30;;;;;;5092953;28;20564;-80
2021/01/17 02:37:57;;;;;;;9.53;4.97;;;-4.30;51.20;;;;;;5074990;28;20084;-80
2021/01/17 02:40:41;;;;;;;10.23;5.90;;;-4.40;51.30;;;;;;5091672;28;20496;-80
2021/01/17 02:43:07;;;;;;;14.77;5.80;;;-4.40;51.30;;;;;;5093402;28;20039;-82
2021/01/17 02:45:35;;;;;;;11.17;5.40;;;-4.50;51.40;;;;;;5075005;28;20047;-81
2021/01/17 02:48:02;;;;;;;10.30;5.60;;;-4.50;51.20;;;;;;5092176;28;20032;-81
2021/01/17 02:50:28;;;;;;;9.40;5.33;;;-4.50;51.30;;;;;;5074929;28;20028;-80
2021/01/17 02:53:12;;;;;;;12.17;5.57;;;-4.60;51.00;;;;;;5074917;28;20052;-80
2021/01/17 02:55:39;;;;;;;11.43;5.47;;;-4.50;51.00;;;;;;5092341;28;20044;-84
2021/01/17 02:58:08;;;;;;;12.23;5.80;;;-4.60;50.80;;;;;;5098060;28;20488;-81
2021/01/17 03:00:38;;;;;;;12.20;5.80;;;-4.70;50.80;;;;;;5092702;28;20105;-80
2021/01/17 03:03:07;;;;;;;8.50;5.27;;;-4.60;50.70;;;;;;5075292;28;20032;-78
2021/01/17 03:05:35;;;;;;;12.23;5.90;;;-4.70;50.70;;;;;;5078438;28;20094;-80
2021/01/17 03:08:06;;;;;;;11.07;5.53;;;-4.70;50.50;;;;;;5095499;28;20404;-78
2021/01/17 03:10:32;;;;;;;13.07;5.67;;;-4.70;50.30;;;;;;5095072;28;20043;-80
2021/01/17 03:13:03;;;;;;;11.53;5.10;;;-4.80;50.30;;;;;;5095255;28;20032;-80
2021/01/17 03:15:32;;;;;;;9.93;4.93;;;-4.70;50.20;;;;;;5094906;28;20040;-79
2021/01/17 03:18:01;;;;;;;13.47;5.40;;;-4.70;50.10;;;;;;5078221;28;20119;-79
2021/01/17 03:20:27;;;;;;;11.20;5.60;;;-4.80;50.00;;;;;;5078252;28;20135;-79
2021/01/17 03:22:53;;;;;;;11.13;4.90;;;-4.80;50.20;;;;;;5095848;28;20032;-79
2021/01/17 03:25:19;;;;;;;10.63;5.23;;;-4.80;50.00;;;;;;5095044;28;20032;-82
2021/01/17 03:27:45;;;;;;;13.53;6.03;;;-4.80;50.20;;;;;;5096603;28;20078;-82
2021/01/17 03:30:12;;;;;;;11.37;5.30;;;-4.90;50.00;;;;;;5094831;28;20028;-80
2021/01/17 03:32:37;;;;;;;11.80;5.63;;;-4.90;49.90;;;;;;5078181;28;20032;-79
2021/01/17 03:35:04;;;;;;;9.80;5.40;;;-4.90;50.00;;;;;;5080117;28;20518;-77
2021/01/17 03:37:30;;;;;;;10.20;5.33;;;-4.80;50.10;;;;;;5097348;28;20108;-80
2021/01/17 03:39:56;;;;;;;10.70;5.27;;;-4.80;49.80;;;;;;5077661;28;20040;-78
2021/01/17 03:42:22;;;;;;;9.53;4.73;;;-4.80;49.90;;;;;;5078175;28;20036;-81
2021/01/17 03:44:48;;;;;;;9.43;5.20;;;-4.80;49.70;;;;;;5096885;28;20046;-82
2021/01/17 03:47:14;;;;;;;12.03;5.23;;;-4.90;49.80;;;;;;5096925;28;20117;-80
2021/01/17 03:49:41;;;;;;;10.63;5.00;;;-5.00;49.80;;;;;;5094412;28;20416;-77
2021/01/17 03:52:07;;;;;;;11.93;5.27;;;-4.90;49.70;;;;;;5095341;28;20071;-78
2021/01/17 03:54:33;;;;;;;9.00;4.77;;;-5.00;49.50;;;;;;5077604;28;20509;-77
2021/01/17 03:56:59;;;;;;;10.63;5.03;;;-5.00;49.60;;;;;;5075252;28;20075;-81
2021/01/17 03:59:25;;;;;;;12.57;5.20;;;-5.10;49.80;;;;;;5057732;28;20063;-81
2021/01/17 04:01:51;;;;;;;11.43;5.83;;;-5.00;49.90;;;;;;5041067;28;20028;-81
2021/01/17 04:04:17;;;;;;;12.50;5.27;;;-5.00;49.70;;;;;;5058361;28;20039;-80
2021/01/17 04:06:43;;;;;;;9.87;5.10;;;-5.10;49.50;;;;;;5075477;28;20040;-83
2021/01/17 04:09:09;;;;;;;10.93;5.20;;;-5.10;49.60;;;;;;5057364;28;20037;-80
2021/01/17 04:11:35;;;;;;;11.57;5.43;;;-5.10;49.40;;;;;;5057522;28;20409;-80
2021/01/17 04:14:01;;;;;;;13.10;5.77;;;-5.10;49.40;;;;;;5074871;28;20123;-81
2021/01/17 04:16:27;;;;;;;10.17;5.50;;;-5.10;49.30;;;;;;5057170;28;20036;-81
2021/01/17 04:18:53;;;;;;;8.33;4.90;;;-5.20;49.20;;;;;;5076051;28;20044;-82
2021/01/17 04:21:19;;;;;;;13.03;5.40;;;-5.10;49.00;;;;;;5075258;28;20044;-83
2021/01/17 04:23:45;;;;;;;11.00;5.57;;;-5.10;49.00;;;;;;5057524;28;20090;-82
2021/01/17 04:26:11;;;;;;;9.63;4.40;;;-5.20;48.90;;;;;;5057054;28;20043;-83
2021/01/17 04:28:37;;;;;;;10.67;5.53;;;-5.20;48.70;;;;;;5057264;28;20036;-83
2021/01/17 04:31:03;;;;;;;12.80;5.40;;;-5.20;48.80;;;;;;5040248;28;20485;-83
2021/01/17 04:33:29;;;;;;;8.40;4.53;;;-5.20;48.60;;;;;;5075488;28;20044;-82
2021/01/17 04:35:55;;;;;;;10.53;5.27;;;-5.20;48.60;;;;;;5057806;28;20037;-82
2021/01/17 04:38:22;;;;;;;8.70;4.67;;;-5.20;48.50;;;;;;5057384;28;20039;-82
2021/01/17 04:40:47;;;;;;;11.90;5.30;;;-5.30;48.40;;;;;;5074884;28;20045;-83
2021/01/17 04:43:24;;;;;;;10.67;4.93;;;-5.30;48.40;;;;;;5080743;28;20063;-84
2021/01/17 04:45:52;;;;;;;9.70;4.53;;;-5.30;48.20;;;;;;5079390;28;20096;-81
2021/01/17 04:48:19;;;;;;;11.53;5.60;;;-5.20;48.40;;;;;;5057578;28;20033;-83
2021/01/17 04:50:46;;;;;;;11.67;4.83;;;-5.30;48.20;;;;;;5057511;28;20039;-84
2021/01/17 04:53:13;;;;;;;12.83;5.20;;;-5.30;48.20;;;;;;5073953;28;20048;-78
2021/01/17 04:55:40;;;;;;;12.23;5.03;;;-5.30;47.90;;;;;;5055888;28;20404;-77
2021/01/17 04:58:09;;;;;;;9.67;4.43;;;-5.30;48.00;;;;;;5055576;28;20024;-79
2021/01/17 05:00:44;;;;;;;11.13;4.83;;;-5.40;47.90;;;;;;5055746;28;20040;-78
2021/01/17 05:03:48;;;;;;;10.10;4.57;;;-5.40;48.00;;;;;;5056023;28;20488;-80
2021/01/17 05:06:14;;;;;;;10.20;4.23;;;-5.50;48.00;;;;;;5055608;28;20044;-76
2021/01/17 05:08:44;;;;;;;8.73;4.30;;;-5.50;48.10;;;;;;5039024;28;20131;-79
2021/01/17 05:11:31;;;;;;;9.03;4.47;;;-5.50;47.80;;;;;;5073253;28;20032;-77
2021/01/17 05:14:12;;;;;;;8.77;4.30;;;-5.50;47.80;;;;;;5073389;28;20032;-76
2021/01/17 05:16:47;;;;;;;9.87;5.17;;;-5.60;47.90;;;;;;5055421;28;20385;-77
2021/01/17 05:19:16;;;;;;;9.33;4.30;;;-5.60;47.80;;;;;;5038829;28;20409;-78
2021/01/17 05:21:50;;;;;;;9.03;4.83;;;-5.60;47.90;;;;;;5038885;28;20109;-80
2021/01/17 05:24:18;;;;;;;10.63;5.23;;;-5.60;47.80;;;;;;5073366;28;20562;-79
2021/01/17 05:26:59;;;;;;;8.53;4.37;;;-5.60;47.60;;;;;;5038117;28;20036;-78
2021/01/17 05:29:28;;;;;;;10.80;4.47;;;-5.60;47.70;;;;;;5055450;28;20048;-81
2021/01/17 05:32:06;;;;;;;7.57;4.20;;;-5.60;47.50;;;;;;5038468;28;20033;-80
2021/01/17 05:34:33;;;;;;;9.27;4.77;;;-5.60;47.30;;;;;;5054897;28;20024;-81
2021/01/17 05:37:05;;;;;;;11.83;5.27;;;-5.60;47.30;;;;;;5073400;28;20083;-84
2021/01/17 05:39:32;;;;;;;9.93;4.23;;;-5.60;47.40;;;;;;5055839;28;20089;-84
2021/01/17 05:42:08;;;;;;;10.07;5.13;;;-5.60;47.20;;;;;;5073831;28;20488;-82
2021/01/17 05:44:34;;;;;;;10.73;5.13;;;-5.70;47.10;;;;;;5055914;28;20029;-80
2021/01/17 05:47:06;;;;;;;10.67;4.70;;;-5.60;47.20;;;;;;5038990;28;20041;-80
2021/01/17 05:49:33;;;;;;;8.00;3.93;;;-5.70;47.00;;;;;;5056224;28;20064;-79
2021/01/17 05:52:13;;;;;;;9.93;5.07;;;-5.70;47.10;;;;;;5059977;28;20566;-81
2021/01/17 05:54:46;;;;;;;12.03;4.90;;;-5.70;47.20;;;;;;5088420;28;20067;-79
2021/01/17 05:57:25;;;;;;;8.93;4.30;;;-5.70;46.90;;;;;;5092463;28;20089;-81
2021/01/17 05:59:54;;;;;;;12.23;5.10;;;-5.70;47.00;;;;;;5075921;28;20085;-82
2021/01/17 06:02:22;;;;;;;9.27;4.20;;;-5.70;46.90;;;;;;5093710;28;20040;-82
2021/01/17 06:05:00;;;;;;;8.70;4.23;;;-5.70;46.90;;;;;;5094181;28;20054;-83
2021/01/17 06:07:29;;;;;;;10.83;5.00;;;-5.70;46.80;;;;;;5078643;28;20032;-82
2021/01/17 06:10:03;;;;;;;11.90;5.37;;;-5.80;46.90;;;;;;5093245;28;20047;-82
2021/01/17 06:12:36;;;;;;;12.47;5.30;;;-5.80;46.70;;;;;;5075889;28;20044;-82
2021/01/17 06:15:09;;;;;;;10.97;4.17;;;-5.80;46.90;;;;;;5092801;28;20028;-81
2021/01/17 06:17:47;;;;;;;11.97;4.93;;;-5.80;46.60;;;;;;5091779;28;20044;-78
2021/01/17 06:20:21;;;;;;;11.67;4.87;;;-5.80;46.70;;;;;;5092667;28;20058;-82
2021/01/17 06:22:58;;;;;;;10.60;5.13;;;-5.80;46.70;;;;;;5092385;28;20028;-78
2021/01/17 06:25:32;;;;;;;13.43;6.37;;;-5.80;46.30;;;;;;5092456;28;20040;-81
2021/01/17 06:28:12;;;;;;;9.27;5.03;;;-5.80;46.40;;;;;;5077248;28;20028;-81
2021/01/17 06:30:39;;;;;;;10.70;5.27;;;-5.80;46.40;;;;;;5093023;28;20060;-83
2021/01/17 06:33:07;;;;;;;10.97;5.10;;;-5.80;46.30;;;;;;5078120;28;20039;-81
2021/01/17 06:35:38;;;;;;;11.93;5.30;;;-5.80;46.40;;;;;;5093011;28;20032;-81
2021/01/17 06:38:21;;;;;;;11.07;6.10;;;-5.80;46.40;;;;;;5077879;28;20107;-78
2021/01/17 06:40:49;;;;;;;8.87;3.97;;;-5.80;46.50;;;;;;5095830;28;20040;-78
2021/01/17 06:43:16;;;;;;;11.00;4.70;;;-5.80;46.40;;;;;;5078594;28;20563;-79
2021/01/17 06:45:44;;;;;;;11.43;5.40;;;-5.80;46.00;;;;;;5097189;28;20056;-77
2021/01/17 06:48:24;;;;;;;9.40;5.30;;;-5.80;46.20;;;;;;5079132;28;20176;-77
2021/01/17 06:50:50;;;;;;;11.60;5.90;;;-5.80;46.30;;;;;;5078356;28;20500;-75
2021/01/17 06:53:24;;;;;;;10.87;5.10;;;-5.80;46.80;;;;;;5095017;28;20056;-79
2021/01/17 06:56:14;;;;;;;9.57;4.80;;;-5.70;46.00;;;;;;5079914;28;20487;-76
2021/01/17 06:58:41;;;;;;;11.27;6.00;;;-5.70;45.80;;;;;;5082329;28;20083;-80
2021/01/17 07:01:08;;;;;;;10.97;4.43;;;-5.70;45.80;;;;;;5078523;28;20521;-81
2021/01/17 07:04:00;;;;;;;14.80;5.43;;;-5.70;45.80;;;;;;5096172;28;20036;-82
2021/01/17 07:06:39;;;;;;;10.50;5.33;;;-5.70;45.50;;;;;;5096406;28;20032;-77
2021/01/17 07:09:12;;;;;;;11.00;5.27;;;-5.70;45.70;;;;;;5096710;28;20081;-80
2021/01/17 07:11:58;;;;;;;13.73;5.20;;;-5.70;45.70;;;;;;5095385;28;20476;-76
2021/01/17 07:14:29;;;;;;;11.30;5.33;;;-5.70;46.20;;;;;;5078317;28;20069;-82
2021/01/17 07:16:57;;;;;;;13.40;5.07;;;-5.60;45.80;;;;;;5078978;28;20423;-77
2021/01/17 07:19:32;;;;;;;9.47;5.13;;;-5.60;45.50;;;;;;5094715;28;20043;-79
2021/01/17 07:22:03;;;;;;;9.75;5.22;;;-5.50;45.50;;;;;;5078332;28;20043;-80
2021/01/17 07:24:31;;;;;;;9.80;4.63;;;-5.40;45.80;;;;;;5096440;28;20518;-79
2021/01/17 07:27:03;;;;;;;14.33;5.20;;;-5.30;45.50;;;;;;5096336;28;20036;-83
2021/01/17 07:29:35;;;;;;;13.63;6.10;;;-5.40;44.70;;;;;;5095040;28;20044;-79
2021/01/17 07:32:01;;;;;;;11.67;5.73;;;-5.40;44.90;;;;;;5095877;28;20057;-79
2021/01/17 07:34:31;;;;;;;10.63;5.03;;;-5.20;44.70;;;;;;5095421;28;20121;-78
2021/01/17 07:37:01;;;;;;;13.60;5.50;;;-5.10;44.70;;;;;;5077544;28;20043;-79
2021/01/17 07:39:33;;;;;;;11.90;5.60;;;-5.00;44.70;;;;;;5073518;28;20112;-82
2021/01/17 07:42:02;;;;;;;11.40;5.73;;;-4.90;44.70;;;;;;5092768;28;20043;-78
2021/01/17 07:44:32;;;;;;;12.80;5.47;;;-4.80;44.30;;;;;;5076308;28;20122;-74
2021/01/17 07:47:05;;;;;;;19.17;7.40;;;-4.70;44.20;;;;;;5095315;28;20040;-80
2021/01/17 07:49:33;;;;;;;13.00;5.63;;;-4.70;44.00;;;;;;5093464;28;20036;-81
2021/01/17 07:52:03;;;;;;;12.87;5.33;;;-4.70;43.70;;;;;;5094422;28;20064;-79
2021/01/17 07:54:34;;;;;;;10.63;5.77;;;-4.70;43.80;;;;;;5046648;28;20090;-76
2021/01/17 07:57:08;;;;;;;11.93;5.73;;;-4.50;43.70;;;;;;5056844;28;20044;-74
2021/01/17 07:59:34;;;;;;;9.30;5.50;;;-4.50;43.90;;;;;;5056807;28;20085;-75
2021/01/17 08:02:00;;;;;;;10.53;6.07;;;-4.50;43.60;;;;;;5056304;28;20051;-76
2021/01/17 08:04:28;;;;;;;12.30;5.70;;;-4.50;43.70;;;;;;5056944;28;20032;-78
2021/01/17 08:06:57;;;;;;;12.13;5.27;;;-4.50;43.30;;;;;;5059405;28;20032;-79
2021/01/17 08:09:43;;;;;;;13.90;5.80;;;-4.50;43.70;;;;;;5039756;28;20040;-78
2021/01/17 08:12:10;;;;;;;12.27;5.97;;;-4.50;43.70;;;;;;5019981;28;20128;-79
2021/01/17 08:14:41;;;;;;;13.03;6.33;;;-4.40;43.80;;;;;;5020244;28;20474;-81
2021/01/17 08:17:14;;;;;;;11.57;5.57;;;-4.50;43.60;;;;;;5020424;28;20032;-82
2021/01/17 08:19:54;;;;;;;11.67;5.70;;;-4.50;43.80;;;;;;5036182;28;20047;-77
2021/01/17 08:22:26;;;;;;;11.70;5.97;;;-4.50;43.80;;;;;;5037128;28;20037;-80
2021/01/17 08:24:56;;;;;;;13.23;5.77;;;-4.50;43.70;;;;;;5055040;28;20045;-83
2021/01/17 08:30:02;;;;;;;14.20;6.17;;;-4.50;43.90;;;;;;5036331;28;20497;-80
2021/01/17 08:32:35;;;;;;;11.97;5.33;;;-4.50;43.70;;;;;;5036665;28;20053;-80
2021/01/17 08:35:13;;;;;;;12.77;5.87;;;-4.50;44.10;;;;;;5037030;28;20047;-83
2021/01/17 08:38:03;;;;;;;10.17;5.27;;;-4.50;43.70;;;;;;5036650;28;20072;-80
2021/01/17 08:40:29;;;;;;;10.40;5.47;;;-4.60;43.90;;;;;;5025649;28;20053;-75
2021/01/17 08:42:59;;;;;;;9.90;5.27;;;-4.60;43.60;;;;;;5035852;28;20044;-76
2021/01/17 08:45:29;;;;;;;9.37;4.83;;;-4.60;43.50;;;;;;5019485;28;20136;-74
2021/01/17 08:47:55;;;;;;;9.97;5.00;;;-4.60;43.50;;;;;;5053489;28;20036;-74
2021/01/17 08:50:35;;;;;;;12.73;5.63;;;-4.60;43.50;;;;;;5019237;28;20591;-76
2021/01/17 08:53:10;;;;;;;11.53;5.40;;;-4.60;43.70;;;;;;5025112;28;20064;-75
2021/01/17 08:55:44;;;;;;;10.93;5.80;;;-4.60;43.80;;;;;;5072267;28;20488;-75
2021/01/17 08:58:33;;;;;;;9.60;4.80;;;-4.60;43.80;;;;;;5072375;28;20083;-79
2021/01/17 09:01:03;;;;;;;11.67;5.10;;;-4.60;43.70;;;;;;5073703;28;20389;-76
2021/01/17 09:03:29;;;;;;;11.10;4.93;;;-4.50;43.90;;;;;;5073675;28;20086;-78
2021/01/17 09:06:04;;;;;;;9.50;5.30;;;-4.50;43.80;;;;;;5055428;28;20044;-78
2021/01/17 09:08:32;;;;;;;12.90;5.63;;;-4.50;43.70;;;;;;5072419;28;20047;-77
2021/01/17 09:10:59;;;;;;;11.97;4.87;;;-4.50;43.80;;;;;;5071645;28;20040;-76
2021/01/17 09:13:32;;;;;;;13.37;5.00;;;-4.40;43.90;;;;;;5072285;28;20043;-82
2021/01/17 09:16:06;;;;;;;11.50;5.83;;;-4.40;43.90;;;;;;5058351;28;20028;-80
2021/01/17 09:18:39;;;;;;;12.80;5.83;;;-4.50;43.90;;;;;;5076565;28;20123;-79
2021/01/17 09:21:06;;;;;;;10.10;5.37;;;-4.40;43.90;;;;;;5072170;28;20044;-74
2021/01/17 09:23:41;;;;;;;11.23;5.67;;;-4.40;43.70;;;;;;5071690;28;20067;-73
2021/01/17 09:26:07;;;;;;;10.15;5.18;;;-4.40;43.70;;;;;;5072052;28;20064;-74
2021/01/17 09:28:35;;;;;;;14.47;5.80;;;-4.40;43.70;;;;;;5055216;28;20086;-73
2021/01/17 09:31:02;;;;;;;11.27;5.53;;;-4.40;43.60;;;;;;5071759;28;20040;-73
2021/01/17 09:33:30;;;;;;;13.33;5.03;;;-4.40;43.30;;;;;;5055395;28;20024;-81
2021/01/17 09:35:56;;;;;;;12.23;5.27;;;-4.40;43.40;;;;;;5055510;28;20036;-81
2021/01/17 09:38:24;;;;;;;7.70;4.67;;;-4.30;43.40;;;;;;5055376;28;20036;-81
2021/01/17 09:40:58;;;;;;;13.40;5.83;;;-4.30;43.30;;;;;;5082323;28;20108;-83
2021/01/17 09:43:24;;;;;;;11.90;6.27;;;-4.40;43.30;;;;;;5078015;28;20039;-77
2021/01/17 09:46:05;;;;;;;23.73;6.57;;;-4.40;43.20;;;;;;5091919;28;20057;-78
2021/01/17 09:48:31;;;;;;;16.63;5.63;;;-4.40;46.80;;;;;;5093304;28;20125;-81
2021/01/17 09:51:08;;;;;;;15.40;5.97;;;-4.20;52.50;;;;;;5092863;28;20073;-78
2021/01/17 09:53:35;;;;;;;15.47;5.17;;;-4.10;53.90;;;;;;5091379;28;20571;-78
2021/01/17 09:56:04;;;;;;;13.20;5.90;;;-4.10;54.20;;;;;;5091575;28;20044;-77
2021/01/17 09:58:32;;;;;;;16.63;6.23;;;-4.10;53.90;;;;;;5092856;28;20165;-80
2021/01/17 10:00:58;;;;;;;11.17;5.60;;;-4.10;53.80;;;;;;5092721;28;20043;-77
2021/01/17 10:03:28;;;;;;;12.03;6.40;;;-4.20;53.40;;;;;;5092547;28;20500;-77
2021/01/17 10:05:54;;;;;;;12.27;5.97;;;-4.10;53.40;;;;;;5092694;28;20028;-77
2021/01/17 10:08:20;;;;;;;14.00;5.80;;;-4.20;53.30;;;;;;5091463;28;20040;-79
2021/01/17 10:10:47;;;;;;;13.20;6.30;;;-4.20;53.20;;;;;;5092570;28;20101;-76
2021/01/17 10:13:13;;;;;;;12.27;6.23;;;-4.20;52.90;;;;;;5091068;28;20060;-78
2021/01/17 10:15:40;;;;;;;13.87;6.50;;;-4.20;52.90;;;;;;5092597;28;20044;-78
2021/01/17 10:18:07;;;;;;;11.53;6.13;;;-4.30;52.90;;;;;;5091466;28;20042;-77
2021/01/17 10:20:39;;;;;;;13.37;6.27;;;-4.30;52.70;;;;;;5091526;28;20036;-78
2021/01/17 10:23:10;;;;;;;13.03;6.23;;;-4.30;52.70;;;;;;5091774;28;20028;-82
2021/01/17 10:25:37;;;;;;;11.03;5.63;;;-4.40;52.60;;;;;;5093501;28;20085;-78
2021/01/17 10:28:05;;;;;;;13.57;6.40;;;-4.40;52.40;;;;;;5094775;28;20075;-77
2021/01/17 10:30:33;;;;;;;12.30;6.47;;;-4.50;52.10;;;;;;5092489;28;20127;-78
2021/01/17 10:33:05;;;;;;;12.30;5.37;;;-4.50;52.40;;;;;;5092411;28;20042;-77
2021/01/17 10:35:36;;;;;;;10.47;5.23;;;-4.40;52.50;;;;;;5092429;28;20035;-78
2021/01/17 10:38:04;;;;;;;12.77;5.70;;;-4.50;52.60;;;;;;5091414;28;20085;-77
2021/01/17 10:40:31;;;;;;;14.73;6.10;;;-4.50;52.30;;;;;;5091254;28;20041;-80
2021/01/17 10:43:00;;;;;;;11.80;6.30;;;-4.50;52.60;;;;;;5089334;28;20039;-78
2021/01/17 10:45:27;;;;;;;12.57;6.80;;;-4.50;52.50;;;;;;5110216;28;20088;-77
2021/01/17 10:47:58;;;;;;;11.00;5.80;;;-4.60;52.60;;;;;;5111521;28;20036;-79
2021/01/17 10:50:30;;;;;;;13.03;6.50;;;-4.60;52.70;;;;;;5112765;28;20036;-78
2021/01/17 10:53:12;;;;;;;15.37;7.03;;;-4.60;52.70;;;;;;5112970;28;20060;-76
2021/01/17 10:55:43;;;;;;;12.27;6.03;;;-4.60;52.70;;;;;;5111182;28;20043;-78
2021/01/17 10:58:17;;;;;;;12.83;5.80;;;-4.60;52.90;;;;;;5111555;28;20521;-77
2021/01/17 11:01:00;;;;;;;12.10;6.40;;;-4.60;52.80;;;;;;5112647;28;20188;-76
2021/01/17 11:03:32;;;;;;;12.23;6.30;;;-4.60;52.70;;;;;;5094528;28;20046;-79
2021/01/17 11:06:23;;;;;;;13.93;5.77;;;-4.60;52.70;;;;;;5111147;28;20488;-78
2021/01/17 11:09:10;;;;;;;13.37;6.60;;;-4.60;52.90;;;;;;5112557;28;20123;-77
2021/01/17 11:11:52;;;;;;;15.37;7.07;;;-4.60;52.90;;;;;;5094703;28;20038;-78
2021/01/17 11:14:31;;;;;;;17.77;7.33;;;-4.60;52.70;;;;;;5113014;28;20084;-81
2021/01/17 11:16:59;;;;;;;15.10;6.70;;;-4.60;52.70;;;;;;5113066;28;20395;-82
2021/01/17 11:19:40;;;;;;;16.23;7.10;;;-4.60;52.20;;;;;;5095048;28;20046;-82
2021/01/17 11:22:07;;;;;;;13.90;7.00;;;-4.70;53.10;;;;;;5113807;28;20093;-79
2021/01/17 11:24:34;;;;;;;13.30;6.63;;;-4.70;54.50;;;;;;5115908;28;20039;-81
2021/01/17 11:27:15;;;;;;;14.73;8.10;;;-4.60;54.40;;;;;;5099056;28;20036;-81
2021/01/17 11:29:43;;;;;;;14.50;7.10;;;-4.60;53.60;;;;;;5099406;28;20034;-77
2021/01/17 11:32:11;;;;;;;13.10;6.73;;;-4.60;53.10;;;;;;5116467;28;20126;-76
2021/01/17 11:34:39;;;;;;;13.10;6.43;;;-4.60;52.40;;;;;;5116062;28;20027;-80
2021/01/17 11:37:07;;;;;;;14.40;7.17;;;-4.60;51.90;;;;;;5115164;28;20042;-81
2021/01/17 11:39:34;;;;;;;14.30;7.33;;;-4.60;51.60;;;;;;5101352;28;20028;-77
2021/01/17 11:42:00;;;;;;;15.90;7.80;;;-4.70;51.10;;;;;;5115405;28;20127;-82
2021/01/17 11:44:32;;;;;;;12.37;6.50;;;-4.70;50.60;;;;;;5098231;28;20032;-75
2021/01/17 11:47:00;;;;;;;16.03;7.57;;;-4.80;50.40;;;;;;5098974;28;20036;-83
2021/01/17 11:49:28;;;;;;;16.83;7.67;;;-4.70;50.20;;;;;;5097405;28;20080;-76
2021/01/17 11:51:54;;;;;;;17.90;7.10;;;-4.70;49.90;;;;;;5097367;28;20035;-76
2021/01/17 11:54:26;;;;;;;16.10;7.30;;;-4.70;49.50;;;;;;5116534;28;20503;-80
2021/01/17 11:57:07;;;;;;;15.73;7.20;;;-4.80;49.20;;;;;;5114487;28;20043;-76
2021/01/17 11:59:35;;;;;;;14.93;7.10;;;-4.70;49.30;;;;;;5113969;28;20077;-76
2021/01/17 12:02:23;;;;;;;15.10;7.30;;;-4.80;49.00;;;;;;5113929;28;20035;-77
2021/01/17 12:04:59;;;;;;;13.33;6.80;;;-4.80;48.90;;;;;;5097383;28;20031;-78
2021/01/17 12:07:26;;;;;;;17.03;7.60;;;-4.80;48.70;;;;;;5098149;28;20063;-81
2021/01/17 12:10:08;;;;;;;14.17;7.07;;;-4.80;48.50;;;;;;5116021;27;20035;-79
2021/01/17 12:12:36;;;;;;;12.83;6.87;;;-4.80;48.40;;;;;;5115948;28;20035;-84
2021/01/17 12:15:07;;;;;;;17.97;8.13;;;-4.90;48.10;;;;;;5096946;28;20061;-77
2021/01/17 12:17:34;;;;;;;15.40;7.60;;;-4.80;48.20;;;;;;5096629;28;20040;-77
2021/01/17 12:19:59;;;;;;;14.20;7.10;;;-4.90;48.10;;;;;;5115043;28;20043;-74
2021/01/17 12:22:25;;;;;;;15.87;7.67;;;-4.90;48.00;;;;;;5097520;28;20062;-75
2021/01/17 12:24:51;;;;;;;15.47;7.23;;;-4.80;48.20;;;;;;5113715;28;20040;-77
2021/01/17 12:27:18;;;;;;;15.13;7.37;;;-4.80;47.90;;;;;;5114916;28;20060;-76
2021/01/17 12:29:44;;;;;;;17.10;8.23;;;-4.80;48.00;;;;;;5114582;28;20048;-77
2021/01/17 12:32:10;;;;;;;15.67;7.77;;;-4.80;47.70;;;;;;5114627;28;20038;-76
2021/01/17 12:34:36;;;;;;;13.63;7.63;;;-4.80;47.70;;;;;;5113762;28;20372;-78
2021/01/17 12:37:02;;;;;;;14.00;7.53;;;-4.90;47.60;;;;;;5113197;28;20027;-76
2021/01/17 12:39:28;;;;;;;15.33;7.50;;;-4.80;47.60;;;;;;5113403;28;20067;-77
2021/01/17 12:41:57;;;;;;;14.03;7.90;;;-4.80;47.70;;;;;;5096197;28;20039;-77
2021/01/17 12:44:23;;;;;;;14.70;7.63;;;-4.90;47.40;;;;;;5113021;28;20035;-78
2021/01/17 12:46:50;;;;;;;15.17;7.53;;;-4.90;47.40;;;;;;5113416;28;20072;-77
2021/01/17 12:49:17;;;;;;;19.70;8.00;;;-4.90;48.10;;;;;;5113920;28;20114;-81
2021/01/17 12:51:44;;;;;;;17.03;7.37;;;-5.00;47.40;;;;;;5114244;28;20042;-78
2021/01/17 12:54:11;;;;;;;15.73;7.77;;;-4.90;47.40;;;;;;5112915;28;20047;-79
2021/01/17 12:56:38;;;;;;;14.40;7.27;;;-4.90;47.30;;;;;;5114227;28;20035;-78